sensor_id;sensor_type;location;lat;lon;timestamp;pressure;altitude;pressure_sealevel;temperature;humidity
29121;BME280;16191;49.548;8.658;2023-12-28T00:02:02;100406.94;;;7.85;100.00
29121;BME280;16191;49.548;8.658;2023-12-28T00:04:29;100425.16;;;7.84;100.00
29121;BME280;16191;49.548;8.658;2023-12-28T00:06:56;100419.34;;;7.76;100.00
29121;BME280;16191;49.548;8.658;2023-12-28T00:09:23;100410.63;;;7.78;100.00
29121;BME280;16191;49.548;8.658;2023-12-28T00:11:49;100417.59;;;7.76;100.00
29121;BME280;16191;49.548;8.658;2023-12-28T00:14:16;100403.72;;;7.77;100.00
29121;BME280;16191;49.548;8.658;2023-12-28T00:16:43;100404.84;;;7.67;100.00
29121;BME280;16191;49.548;8.658;2023-12-28T00:19:10;100407.28;;;7.73;100.00
29121;BME280;16191;49.548;8.658;2023-12-28T00:21:37;100402.97;;;7.72;100.00
29121;BME280;16191;49.548;8.658;2023-12-28T00:24:04;100404.91;;;7.64;100.00
29121;BME280;16191;49.548;8.658;2023-12-28T00:26:31;100404.03;;;7.65;100.00
29121;BME280;16191;49.548;8.658;2023-12-28T00:29:03;100408.22;;;7.71;100.00
29121;BME280;16191;49.548;8.658;2023-12-28T00:31:29;100399.59;;;7.69;100.00
29121;BME280;16191;49.548;8.658;2023-12-28T00:33:56;100399.63;;;7.67;100.00
29121;BME280;16191;49.548;8.658;2023-12-28T00:36:23;100395.16;;;7.74;100.00
29121;BME280;16191;49.548;8.658;2023-12-28T00:38:51;100402.94;;;7.74;100.00
29121;BME280;16191;49.548;8.658;2023-12-28T00:41:18;100394.19;;;7.78;100.00
29121;BME280;16191;49.548;8.658;2023-12-28T00:43:44;100394.31;;;7.72;100.00
29121;BME280;16191;49.548;8.658;2023-12-28T00:46:11;100402.84;;;7.77;100.00
29121;BME280;16191;49.548;8.658;2023-12-28T00:48:38;100402.00;;;7.76;100.00
29121;BME280;16191;49.548;8.658;2023-12-28T00:51:05;100397.69;;;7.75;100.00
29121;BME280;16191;49.548;8.658;2023-12-28T00:53:31;100403.88;;;7.71;100.00
29121;BME280;16191;49.548;8.658;2023-12-28T00:55:58;100397.66;;;7.77;100.00
29121;BME280;16191;49.548;8.658;2023-12-28T00:58:24;100407.06;;;7.81;100.00
29121;BME280;16191;49.548;8.658;2023-12-28T01:00:51;100393.28;;;7.79;100.00
29121;BME280;16191;49.548;8.658;2023-12-28T01:03:23;100400.03;;;7.84;100.00
29121;BME280;16191;49.548;8.658;2023-12-28T01:05:50;100397.47;;;7.83;100.00
29121;BME280;16191;49.548;8.658;2023-12-28T01:08:19;100404.44;;;7.81;100.00
29121;BME280;16191;49.548;8.658;2023-12-28T01:10:45;100407.88;;;7.83;100.00
29121;BME280;16191;49.548;8.658;2023-12-28T01:13:13;100426.81;;;7.86;100.00
29121;BME280;16191;49.548;8.658;2023-12-28T01:15:40;100419.88;;;7.87;100.00
29121;BME280;16191;49.548;8.658;2023-12-28T01:18:06;100432.75;;;7.91;100.00
29121;BME280;16191;49.548;8.658;2023-12-28T01:20:34;100420.66;;;7.90;100.00
29121;BME280;16191;49.548;8.658;2023-12-28T01:23:03;100429.38;;;7.88;100.00
29121;BME280;16191;49.548;8.658;2023-12-28T01:25:31;100426.78;;;7.88;100.00
29121;BME280;16191;49.548;8.658;2023-12-28T01:27:57;100433.69;;;7.89;100.00
29121;BME280;16191;49.548;8.658;2023-12-28T01:30:25;100434.63;;;7.86;100.00
29121;BME280;16191;49.548;8.658;2023-12-28T01:32:53;100421.44;;;7.94;100.00
29121;BME280;16191;49.548;8.658;2023-12-28T01:35:20;100427.44;;;7.96;100.00
29121;BME280;16191;49.548;8.658;2023-12-28T01:37:46;100428.41;;;7.92;100.00
29121;BME280;16191;49.548;8.658;2023-12-28T01:40:15;100425.94;;;7.87;100.00
29121;BME280;16191;49.548;8.658;2023-12-28T01:42:41;100426.72;;;7.91;100.00
29121;BME280;16191;49.548;8.658;2023-12-28T01:45:08;100437.03;;;7.94;100.00
29121;BME280;16191;49.548;8.658;2023-12-28T01:47:35;100431.78;;;7.96;100.00
29121;BME280;16191;49.548;8.658;2023-12-28T01:50:02;100428.84;;;8.08;100.00
29121;BME280;16191;49.548;8.658;2023-12-28T01:52:29;100431.34;;;8.11;100.00
29121;BME280;16191;49.548;8.658;2023-12-28T01:54:56;100433.09;;;8.10;100.00
29121;BME280;16191;49.548;8.658;2023-12-28T01:57:23;100430.34;;;8.16;100.00
29121;BME280;16191;49.548;8.658;2023-12-28T01:59:52;100439.78;;;8.20;100.00
29121;BME280;16191;49.548;8.658;2023-12-28T02:02:19;100437.16;;;8.20;100.00
29121;BME280;16191;49.548;8.658;2023-12-28T02:04:45;100443.31;;;8.18;100.00
29121;BME280;16191;49.548;8.658;2023-12-28T02:07:12;100444.28;;;8.14;100.00
29121;BME280;16191;49.548;8.658;2023-12-28T02:09:39;100453.69;;;8.18;100.00
29121;BME280;16191;49.548;8.658;2023-12-28T02:12:06;100443.25;;;8.19;100.00
29121;BME280;16191;49.548;8.658;2023-12-28T02:14:34;100447.31;;;8.28;99.86
29121;BME280;16191;49.548;8.658;2023-12-28T02:17:04;100455.09;;;8.30;100.00
29121;BME280;16191;49.548;8.658;2023-12-28T02:22:10;100461.50;;;8.18;100.00
29121;BME280;16191;49.548;8.658;2023-12-28T02:27:44;100462.97;;;8.26;100.00
29121;BME280;16191;49.548;8.658;2023-12-28T02:30:18;100465.47;;;8.30;100.00
29121;BME280;16191;49.548;8.658;2023-12-28T02:33:15;100462.84;;;8.31;100.00
29121;BME280;16191;49.548;8.658;2023-12-28T02:36:09;100454.63;;;8.46;96.76
29121;BME280;16191;49.548;8.658;2023-12-28T02:38:38;100453.09;;;8.41;99.53
29121;BME280;16191;49.548;8.658;2023-12-28T02:41:06;100439.06;;;8.45;99.58
29121;BME280;16191;49.548;8.658;2023-12-28T02:43:34;100455.53;;;8.45;98.76
29121;BME280;16191;49.548;8.658;2023-12-28T02:46:00;100448.50;;;8.49;98.30
29121;BME280;16191;49.548;8.658;2023-12-28T02:48:27;100452.75;;;8.51;96.67
29121;BME280;16191;49.548;8.658;2023-12-28T02:50:54;100451.91;;;8.51;97.17
29121;BME280;16191;49.548;8.658;2023-12-28T02:53:21;100437.75;;;8.61;94.57
29121;BME280;16191;49.548;8.658;2023-12-28T02:55:48;100449.09;;;8.58;94.76
29121;BME280;16191;49.548;8.658;2023-12-28T02:58:15;100456.91;;;8.58;97.97
29121;BME280;16191;49.548;8.658;2023-12-28T03:00:41;100456.66;;;8.66;96.13
29121;BME280;16191;49.548;8.658;2023-12-28T03:03:08;100455.72;;;8.69;94.35
29121;BME280;16191;49.548;8.658;2023-12-28T03:05:35;100454.84;;;8.68;96.26
29121;BME280;16191;49.548;8.658;2023-12-28T03:08:02;100452.75;;;8.81;92.11
29121;BME280;16191;49.548;8.658;2023-12-28T03:10:28;100455.59;;;8.73;94.71
29121;BME280;16191;49.548;8.658;2023-12-28T03:12:55;100467.53;;;8.80;92.34
29121;BME280;16191;49.548;8.658;2023-12-28T03:15:22;100470.72;;;8.88;91.73
29121;BME280;16191;49.548;8.658;2023-12-28T03:17:49;100468.03;;;8.91;91.02
29121;BME280;16191;49.548;8.658;2023-12-28T03:20:16;100469.88;;;8.88;92.41
29121;BME280;16191;49.548;8.658;2023-12-28T03:22:43;100470.84;;;8.85;95.80
29121;BME280;16191;49.548;8.658;2023-12-28T03:25:09;100469.94;;;8.86;98.13
29121;BME280;16191;49.548;8.658;2023-12-28T03:27:36;100480.41;;;8.85;100.00
29121;BME280;16191;49.548;8.658;2023-12-28T03:30:03;100473.50;;;8.84;100.00
29121;BME280;16191;49.548;8.658;2023-12-28T03:32:30;100467.69;;;8.74;100.00
29121;BME280;16191;49.548;8.658;2023-12-28T03:34:57;100467.59;;;8.77;100.00
29121;BME280;16191;49.548;8.658;2023-12-28T03:37:24;100471.91;;;8.78;100.00
29121;BME280;16191;49.548;8.658;2023-12-28T03:39:50;100470.97;;;8.81;100.00
29121;BME280;16191;49.548;8.658;2023-12-28T03:42:18;100457.19;;;8.77;100.00
29121;BME280;16191;49.548;8.658;2023-12-28T03:44:44;100453.63;;;8.81;100.00
29121;BME280;16191;49.548;8.658;2023-12-28T03:47:11;100458.81;;;8.81;100.00
29121;BME280;16191;49.548;8.658;2023-12-28T03:49:38;100453.63;;;8.81;100.00
29121;BME280;16191;49.548;8.658;2023-12-28T03:52:06;100467.34;;;8.86;100.00
29121;BME280;16191;49.548;8.658;2023-12-28T03:54:32;100463.00;;;8.87;100.00
29121;BME280;16191;49.548;8.658;2023-12-28T03:56:59;100463.84;;;8.87;100.00
29121;BME280;16191;49.548;8.658;2023-12-28T03:59:26;100458.78;;;8.83;100.00
29121;BME280;16191;49.548;8.658;2023-12-28T04:01:52;100465.69;;;8.84;100.00
29121;BME280;16191;49.548;8.658;2023-12-28T04:04:20;100482.88;;;8.88;100.00
29121;BME280;16191;49.548;8.658;2023-12-28T04:06:49;100498.50;;;8.88;100.00
29121;BME280;16191;49.548;8.658;2023-12-28T04:09:16;100496.00;;;8.85;100.00
29121;BME280;16191;49.548;8.658;2023-12-28T04:11:45;100491.75;;;8.82;100.00
29121;BME280;16191;49.548;8.658;2023-12-28T04:14:13;100503.00;;;8.83;100.00
29121;BME280;16191;49.548;8.658;2023-12-28T04:16:40;100490.97;;;8.79;100.00
29121;BME280;16191;49.548;8.658;2023-12-28T04:19:06;100477.16;;;8.77;100.00
29121;BME280;16191;49.548;8.658;2023-12-28T04:21:33;100477.94;;;8.80;100.00
29121;BME280;16191;49.548;8.658;2023-12-28T04:24:02;100482.38;;;8.77;100.00
29121;BME280;16191;49.548;8.658;2023-12-28T04:26:29;100471.00;;;8.79;100.00
29121;BME280;16191;49.548;8.658;2023-12-28T04:28:56;100477.84;;;8.83;100.00
29121;BME280;16191;49.548;8.658;2023-12-28T04:31:23;100483.84;;;8.85;100.00
29121;BME280;16191;49.548;8.658;2023-12-28T04:33:50;100495.97;;;8.86;100.00
29121;BME280;16191;49.548;8.658;2023-12-28T04:36:17;100512.47;;;8.85;100.00
29121;BME280;16191;49.548;8.658;2023-12-28T04:38:44;100513.28;;;8.87;100.00
29121;BME280;16191;49.548;8.658;2023-12-28T04:41:10;100479.38;;;8.89;100.00
29121;BME280;16191;49.548;8.658;2023-12-28T04:43:38;100466.75;;;8.77;100.00
29121;BME280;16191;49.548;8.658;2023-12-28T04:46:05;100499.56;;;8.82;100.00
29121;BME280;16191;49.548;8.658;2023-12-28T04:48:32;100496.09;;;8.82;100.00
29121;BME280;16191;49.548;8.658;2023-12-28T04:51:02;100481.25;;;8.85;100.00
29121;BME280;16191;49.548;8.658;2023-12-28T04:53:29;100476.13;;;8.82;100.00
29121;BME280;16191;49.548;8.658;2023-12-28T04:55:57;100508.91;;;8.88;100.00
29121;BME280;16191;49.548;8.658;2023-12-28T04:58:23;100513.16;;;8.90;100.00
29121;BME280;16191;49.548;8.658;2023-12-28T05:00:50;100510.69;;;8.87;100.00
29121;BME280;16191;49.548;8.658;2023-12-28T05:03:18;100508.09;;;8.87;100.00
29121;BME280;16191;49.548;8.658;2023-12-28T05:05:45;100509.88;;;8.85;100.00
29121;BME280;16191;49.548;8.658;2023-12-28T05:08:15;100509.75;;;8.88;100.00
29121;BME280;16191;49.548;8.658;2023-12-28T05:10:41;100523.56;;;8.90;100.00
29121;BME280;16191;49.548;8.658;2023-12-28T05:13:08;100528.03;;;8.87;100.00
29121;BME280;16191;49.548;8.658;2023-12-28T05:15:35;100525.56;;;8.82;100.00
29121;BME280;16191;49.548;8.658;2023-12-28T05:18:02;100525.50;;;8.85;100.00
29121;BME280;16191;49.548;8.658;2023-12-28T05:20:31;100517.72;;;8.84;100.00
29121;BME280;16191;49.548;8.658;2023-12-28T05:22:58;100510.84;;;8.81;100.00
29121;BME280;16191;49.548;8.658;2023-12-28T05:25:25;100515.16;;;8.82;100.00
29121;BME280;16191;49.548;8.658;2023-12-28T05:27:51;100519.47;;;8.83;100.00
29121;BME280;16191;49.548;8.658;2023-12-28T05:30:18;100532.47;;;8.83;100.00
29121;BME280;16191;49.548;8.658;2023-12-28T05:32:45;100522.00;;;8.86;100.00
29121;BME280;16191;49.548;8.658;2023-12-28T05:35:11;100527.97;;;8.88;100.00
29121;BME280;16191;49.548;8.658;2023-12-28T05:37:38;100527.94;;;8.90;100.00
29121;BME280;16191;49.548;8.658;2023-12-28T05:40:05;100529.69;;;8.89;100.00
29121;BME280;16191;49.548;8.658;2023-12-28T05:42:32;100527.97;;;8.88;100.00
29121;BME280;16191;49.548;8.658;2023-12-28T05:44:59;100528.75;;;8.92;100.00
29121;BME280;16191;49.548;8.658;2023-12-28T05:47:25;100532.09;;;8.96;100.00
29121;BME280;16191;49.548;8.658;2023-12-28T05:49:52;100538.13;;;8.98;100.00
29121;BME280;16191;49.548;8.658;2023-12-28T05:52:19;100532.84;;;9.01;100.00
29121;BME280;16191;49.548;8.658;2023-12-28T05:54:46;100528.53;;;9.00;100.00
29121;BME280;16191;49.548;8.658;2023-12-28T05:57:15;100518.97;;;9.00;100.00
29121;BME280;16191;49.548;8.658;2023-12-28T05:59:42;100520.75;;;8.98;100.00
29121;BME280;16191;49.548;8.658;2023-12-28T06:02:08;100522.63;;;8.93;100.00
29121;BME280;16191;49.548;8.658;2023-12-28T06:04:35;100525.06;;;8.99;100.00
29121;BME280;16191;49.548;8.658;2023-12-28T06:07:03;100532.84;;;9.01;100.00
29121;BME280;16191;49.548;8.658;2023-12-28T06:09:31;100524.34;;;8.94;100.00
29121;BME280;16191;49.548;8.658;2023-12-28T06:11:58;100533.91;;;8.93;100.00
29121;BME280;16191;49.548;8.658;2023-12-28T06:14:25;100537.41;;;8.92;100.00
29121;BME280;16191;49.548;8.658;2023-12-28T06:16:51;100532.97;;;8.96;100.00
29121;BME280;16191;49.548;8.658;2023-12-28T06:19:19;100531.38;;;8.90;100.00
29121;BME280;16191;49.548;8.658;2023-12-28T06:21:46;100535.72;;;8.90;100.00
29121;BME280;16191;49.548;8.658;2023-12-28T06:24:12;100541.78;;;8.90;100.00
29121;BME280;16191;49.548;8.658;2023-12-28T06:26:43;100540.81;;;8.94;100.00
29121;BME280;16191;49.548;8.658;2023-12-28T06:29:10;100544.91;;;9.03;100.00
29121;BME280;16191;49.548;8.658;2023-12-28T06:31:37;100542.56;;;8.94;100.00
29121;BME280;16191;49.548;8.658;2023-12-28T06:34:07;100536.63;;;8.89;100.00
29121;BME280;16191;49.548;8.658;2023-12-28T06:36:35;100537.53;;;8.88;100.00
29121;BME280;16191;49.548;8.658;2023-12-28T06:39:02;100532.53;;;8.82;100.00
29121;BME280;16191;49.548;8.658;2023-12-28T06:41:29;100526.28;;;8.87;100.00
29121;BME280;16191;49.548;8.658;2023-12-28T06:43:55;100534.09;;;8.87;100.00
29121;BME280;16191;49.548;8.658;2023-12-28T06:46:22;100538.38;;;8.88;100.00
29121;BME280;16191;49.548;8.658;2023-12-28T06:48:49;100537.72;;;8.82;100.00
29121;BME280;16191;49.548;8.658;2023-12-28T06:51:20;100531.53;;;8.86;100.00
29121;BME280;16191;49.548;8.658;2023-12-28T06:53:48;100535.16;;;8.80;100.00
29121;BME280;16191;49.548;8.658;2023-12-28T06:56:16;100532.47;;;8.83;100.00
29121;BME280;16191;49.548;8.658;2023-12-28T06:58:43;100531.59;;;8.84;100.00
29121;BME280;16191;49.548;8.658;2023-12-28T07:01:10;100523.78;;;8.84;100.00
29121;BME280;16191;49.548;8.658;2023-12-28T07:03:39;100515.22;;;8.81;100.00
29121;BME280;16191;49.548;8.658;2023-12-28T07:06:07;100512.66;;;8.79;100.00
29121;BME280;16191;49.548;8.658;2023-12-28T07:08:35;100512.72;;;8.76;100.00
29121;BME280;16191;49.548;8.658;2023-12-28T07:11:02;100522.25;;;8.77;100.00
29121;BME280;16191;49.548;8.658;2023-12-28T07:13:31;100533.38;;;8.82;100.00
29121;BME280;16191;49.548;8.658;2023-12-28T07:15:58;100538.50;;;8.85;100.00
29121;BME280;16191;49.548;8.658;2023-12-28T07:18:26;100545.44;;;8.85;100.00
29121;BME280;16191;49.548;8.658;2023-12-28T07:20:54;100554.97;;;8.86;100.00
29121;BME280;16191;49.548;8.658;2023-12-28T07:23:21;100547.16;;;8.86;100.00
29121;BME280;16191;49.548;8.658;2023-12-28T07:25:48;100557.56;;;8.86;100.00
29121;BME280;16191;49.548;8.658;2023-12-28T07:28:14;100559.19;;;8.88;100.00
29121;BME280;16191;49.548;8.658;2023-12-28T07:30:41;100554.16;;;8.84;100.00
29121;BME280;16191;49.548;8.658;2023-12-28T07:33:08;100553.25;;;8.85;100.00
29121;BME280;16191;49.548;8.658;2023-12-28T07:35:35;100568.06;;;8.83;100.00
29121;BME280;16191;49.548;8.658;2023-12-28T07:38:01;100564.66;;;8.81;100.00
29121;BME280;16191;49.548;8.658;2023-12-28T07:40:29;100569.81;;;8.82;100.00
29121;BME280;16191;49.548;8.658;2023-12-28T07:42:55;100581.00;;;8.86;100.00
29121;BME280;16191;49.548;8.658;2023-12-28T07:45:23;100578.28;;;8.89;100.00
29121;BME280;16191;49.548;8.658;2023-12-28T07:47:52;100575.00;;;8.82;100.00
29121;BME280;16191;49.548;8.658;2023-12-28T07:50:19;100580.94;;;8.87;100.00
29121;BME280;16191;49.548;8.658;2023-12-28T07:52:48;100580.13;;;8.85;100.00
29121;BME280;16191;49.548;8.658;2023-12-28T07:55:15;100569.59;;;8.88;100.00
29121;BME280;16191;49.548;8.658;2023-12-28T07:57:42;100582.69;;;8.87;100.00
29121;BME280;16191;49.548;8.658;2023-12-28T08:00:10;100584.38;;;8.88;100.00
29121;BME280;16191;49.548;8.658;2023-12-28T08:02:37;100579.16;;;8.88;100.00
29121;BME280;16191;49.548;8.658;2023-12-28T08:05:05;100569.72;;;8.85;100.00
29121;BME280;16191;49.548;8.658;2023-12-28T08:07:32;100580.13;;;8.85;100.00
29121;BME280;16191;49.548;8.658;2023-12-28T08:09:59;100577.41;;;8.88;100.00
29121;BME280;16191;49.548;8.658;2023-12-28T08:12:26;100574.88;;;8.87;100.00
29121;BME280;16191;49.548;8.658;2023-12-28T08:14:55;100580.94;;;8.87;100.00
29121;BME280;16191;49.548;8.658;2023-12-28T08:17:22;100588.75;;;8.87;100.00
29121;BME280;16191;49.548;8.658;2023-12-28T08:19:48;100587.78;;;8.90;100.00
29121;BME280;16191;49.548;8.658;2023-12-28T08:22:16;100599.06;;;8.90;100.00
29121;BME280;16191;49.548;8.658;2023-12-28T08:24:42;100601.78;;;8.87;100.00
29121;BME280;16191;49.548;8.658;2023-12-28T08:27:09;100591.16;;;8.93;100.00
29121;BME280;16191;49.548;8.658;2023-12-28T08:29:36;100588.50;;;8.95;100.00
29121;BME280;16191;49.548;8.658;2023-12-28T08:32:03;100597.47;;;8.86;100.00
29121;BME280;16191;49.548;8.658;2023-12-28T08:34:30;100594.69;;;8.91;100.00
29121;BME280;16191;49.548;8.658;2023-12-28T08:36:57;100592.78;;;8.98;100.00
29121;BME280;16191;49.548;8.658;2023-12-28T08:39:24;100594.50;;;8.99;100.00
29121;BME280;16191;49.548;8.658;2023-12-28T08:41:51;100599.81;;;8.94;100.00
29121;BME280;16191;49.548;8.658;2023-12-28T08:44:17;100586.84;;;8.92;100.00
29121;BME280;16191;49.548;8.658;2023-12-28T08:46:44;100589.16;;;9.03;100.00
29121;BME280;16191;49.548;8.658;2023-12-28T08:49:12;100573.50;;;9.05;100.00
29121;BME280;16191;49.548;8.658;2023-12-28T08:51:39;100583.09;;;9.03;100.00
29121;BME280;16191;49.548;8.658;2023-12-28T08:54:10;100586.47;;;9.06;100.00
29121;BME280;16191;49.548;8.658;2023-12-28T08:56:37;100591.72;;;9.05;100.00
29121;BME280;16191;49.548;8.658;2023-12-28T08:59:03;100595.88;;;9.10;100.00
29121;BME280;16191;49.548;8.658;2023-12-28T09:01:30;100596.00;;;9.07;100.00
29121;BME280;16191;49.548;8.658;2023-12-28T09:03:58;100597.69;;;9.08;100.00
29121;BME280;16191;49.548;8.658;2023-12-28T09:06:25;100603.69;;;9.10;100.00
29121;BME280;16191;49.548;8.658;2023-12-28T09:08:52;100599.25;;;9.14;100.00
29121;BME280;16191;49.548;8.658;2023-12-28T09:11:20;100594.75;;;9.19;100.00
29121;BME280;16191;49.548;8.658;2023-12-28T09:13:48;100598.31;;;9.16;100.00
29121;BME280;16191;49.548;8.658;2023-12-28T09:16:15;100599.13;;;9.18;100.00
29121;BME280;16191;49.548;8.658;2023-12-28T09:18:42;100596.50;;;9.18;100.00
29121;BME280;16191;49.548;8.658;2023-12-28T09:21:10;100590.44;;;9.18;100.00
29121;BME280;16191;49.548;8.658;2023-12-28T09:23:37;100591.16;;;9.23;100.00
29121;BME280;16191;49.548;8.658;2023-12-28T09:26:05;100594.72;;;9.20;100.00
29121;BME280;16191;49.548;8.658;2023-12-28T09:28:33;100592.84;;;9.25;100.00
29121;BME280;16191;49.548;8.658;2023-12-28T09:31:01;100593.81;;;9.21;100.00
29121;BME280;16191;49.548;8.658;2023-12-28T09:33:28;100605.09;;;9.22;100.00
29121;BME280;16191;49.548;8.658;2023-12-28T09:35:55;100614.59;;;9.23;100.00
29121;BME280;16191;49.548;8.658;2023-12-28T09:38:22;100619.03;;;9.19;100.00
29121;BME280;16191;49.548;8.658;2023-12-28T09:40:53;100624.94;;;9.26;100.00
29121;BME280;16191;49.548;8.658;2023-12-28T09:43:31;100626.66;;;9.27;100.00
29121;BME280;16191;49.548;8.658;2023-12-28T09:46:07;100630.16;;;9.26;100.00
29121;BME280;16191;49.548;8.658;2023-12-28T09:48:38;100634.47;;;9.27;100.00
29121;BME280;16191;49.548;8.658;2023-12-28T09:51:10;100624.84;;;9.29;100.00
29121;BME280;16191;49.548;8.658;2023-12-28T09:53:42;100630.06;;;9.29;100.00
29121;BME280;16191;49.548;8.658;2023-12-28T09:56:10;100618.59;;;9.35;100.00
29121;BME280;16191;49.548;8.658;2023-12-28T09:58:37;100617.66;;;9.37;100.00
29121;BME280;16191;49.548;8.658;2023-12-28T10:01:05;100620.25;;;9.37;100.00
29121;BME280;16191;49.548;8.658;2023-12-28T10:03:32;100617.56;;;9.40;100.00
29121;BME280;16191;49.548;8.658;2023-12-28T10:05:59;100611.38;;;9.44;100.00
29121;BME280;16191;49.548;8.658;2023-12-28T10:08:25;100603.19;;;9.55;100.00
29121;BME280;16191;49.548;8.658;2023-12-28T10:10:52;100605.34;;;9.42;100.00
29121;BME280;16191;49.548;8.658;2023-12-28T10:13:20;100602.88;;;9.38;100.00
29121;BME280;16191;49.548;8.658;2023-12-28T10:15:48;100596.72;;;9.40;100.00
29121;BME280;16191;49.548;8.658;2023-12-28T10:18:19;100590.66;;;9.40;100.00
29121;BME280;16191;49.548;8.658;2023-12-28T10:20:50;100605.47;;;9.38;100.00
29121;BME280;16191;49.548;8.658;2023-12-28T10:23:18;100586.34;;;9.39;100.00
29121;BME280;16191;49.548;8.658;2023-12-28T10:25:45;100602.03;;;9.37;100.00
29121;BME280;16191;49.548;8.658;2023-12-28T10:28:12;100601.13;;;9.38;100.00
29121;BME280;16191;49.548;8.658;2023-12-28T10:30:39;100591.47;;;9.42;100.00
29121;BME280;16191;49.548;8.658;2023-12-28T10:33:09;100594.13;;;9.40;100.00
29121;BME280;16191;49.548;8.658;2023-12-28T10:35:36;100590.75;;;9.37;100.00
29121;BME280;16191;49.548;8.658;2023-12-28T10:38:04;100580.31;;;9.37;100.00
29121;BME280;16191;49.548;8.658;2023-12-28T10:40:30;100589.09;;;9.34;100.00
29121;BME280;16191;49.548;8.658;2023-12-28T10:43:07;100574.94;;;9.43;100.00
29121;BME280;16191;49.548;8.658;2023-12-28T10:45:37;100575.84;;;9.42;100.00
29121;BME280;16191;49.548;8.658;2023-12-28T10:48:12;100563.00;;;9.36;100.00
29121;BME280;16191;49.548;8.658;2023-12-28T10:50:47;100567.81;;;9.49;100.00
29121;BME280;16191;49.548;8.658;2023-12-28T10:53:24;100573.09;;;9.46;100.00
29121;BME280;16191;49.548;8.658;2023-12-28T11:01:47;100576.13;;;9.60;100.00
29121;BME280;16191;49.548;8.658;2023-12-28T11:04:34;100580.28;;;9.66;100.00
29121;BME280;16191;49.548;8.658;2023-12-28T11:07:05;100578.53;;;9.67;100.00
29121;BME280;16191;49.548;8.658;2023-12-28T11:09:34;100575.75;;;9.73;100.00
29121;BME280;16191;49.548;8.658;2023-12-28T11:12:03;100592.06;;;9.78;100.00
29121;BME280;16191;49.548;8.658;2023-12-28T11:14:34;100578.50;;;9.68;100.00
29121;BME280;16191;49.548;8.658;2023-12-28T11:17:01;100575.06;;;9.66;100.00
29121;BME280;16191;49.548;8.658;2023-12-28T11:19:29;100569.06;;;9.64;100.00
29121;BME280;16191;49.548;8.658;2023-12-28T11:21:57;100568.91;;;9.69;100.00
29121;BME280;16191;49.548;8.658;2023-12-28T11:24:27;100564.66;;;9.66;100.00
29121;BME280;16191;49.548;8.658;2023-12-28T11:26:55;100554.94;;;9.71;100.00
29121;BME280;16191;49.548;8.658;2023-12-28T11:29:23;100553.44;;;9.64;100.00
29121;BME280;16191;49.548;8.658;2023-12-28T11:32:00;100559.59;;;9.61;100.00
29121;BME280;16191;49.548;8.658;2023-12-28T11:34:32;100554.38;;;9.61;100.00
29121;BME280;16191;49.548;8.658;2023-12-28T11:37:07;100548.97;;;9.68;100.00
29121;BME280;16191;49.548;8.658;2023-12-28T11:39:37;100547.53;;;9.57;100.00
29121;BME280;16191;49.548;8.658;2023-12-28T11:42:07;100558.63;;;9.64;100.00
29121;BME280;16191;49.548;8.658;2023-12-28T11:47:25;100562.41;;;9.54;100.00
29121;BME280;16191;49.548;8.658;2023-12-28T11:49:53;100575.56;;;9.51;100.00
29121;BME280;16191;49.548;8.658;2023-12-28T11:52:28;100568.59;;;9.51;100.00
29121;BME280;16191;49.548;8.658;2023-12-28T11:54:56;100570.59;;;9.43;100.00
29121;BME280;16191;49.548;8.658;2023-12-28T11:57:23;100565.47;;;9.40;100.00
29121;BME280;16191;49.548;8.658;2023-12-28T12:00:01;100550.56;;;9.45;100.00
29121;BME280;16191;49.548;8.658;2023-12-28T12:02:30;100553.28;;;9.41;100.00
29121;BME280;16191;49.548;8.658;2023-12-28T12:04:57;100547.19;;;9.42;100.00
29121;BME280;16191;49.548;8.658;2023-12-28T12:07:24;100542.84;;;9.42;100.00
29121;BME280;16191;49.548;8.658;2023-12-28T12:09:58;100536.63;;;9.46;100.00
29121;BME280;16191;49.548;8.658;2023-12-28T12:12:26;100534.44;;;9.33;100.00
29121;BME280;16191;49.548;8.658;2023-12-28T12:14:53;100533.41;;;9.38;100.00
29121;BME280;16191;49.548;8.658;2023-12-28T12:17:20;100521.38;;;9.34;100.00
29121;BME280;16191;49.548;8.658;2023-12-28T12:19:47;100532.47;;;9.41;100.00
29121;BME280;16191;49.548;8.658;2023-12-28T12:22:17;100529.22;;;9.33;100.00
29121;BME280;16191;49.548;8.658;2023-12-28T12:24:47;100536.91;;;9.37;100.00
29121;BME280;16191;49.548;8.658;2023-12-28T12:27:16;100525.22;;;9.22;100.00
29121;BME280;16191;49.548;8.658;2023-12-28T12:29:44;100525.09;;;9.27;100.00
29121;BME280;16191;49.548;8.658;2023-12-28T12:32:11;100525.03;;;9.01;100.00
29121;BME280;16191;49.548;8.658;2023-12-28T12:34:39;100528.34;;;9.06;100.00
29121;BME280;16191;49.548;8.658;2023-12-28T12:37:06;100516.41;;;8.99;100.00
29121;BME280;16191;49.548;8.658;2023-12-28T12:39:33;100518.91;;;9.02;100.00
29121;BME280;16191;49.548;8.658;2023-12-28T12:42:00;100519.88;;;8.99;100.00
29121;BME280;16191;49.548;8.658;2023-12-28T12:44:27;100504.41;;;8.93;100.00
29121;BME280;16191;49.548;8.658;2023-12-28T12:46:57;100486.78;;;9.03;100.00
29121;BME280;16191;49.548;8.658;2023-12-28T12:49:25;100473.88;;;9.00;100.00
29121;BME280;16191;49.548;8.658;2023-12-28T12:51:53;100484.28;;;9.00;100.00
29121;BME280;16191;49.548;8.658;2023-12-28T12:54:20;100476.66;;;8.93;100.00
29121;BME280;16191;49.548;8.658;2023-12-28T12:56:47;100474.91;;;8.94;100.00
29121;BME280;16191;49.548;8.658;2023-12-28T12:59:16;100474.66;;;9.02;100.00
29121;BME280;16191;49.548;8.658;2023-12-28T13:01:45;100474.75;;;8.99;100.00
29121;BME280;16191;49.548;8.658;2023-12-28T13:04:19;100471.31;;;8.98;100.00
29121;BME280;16191;49.548;8.658;2023-12-28T13:06:46;100470.47;;;8.98;100.00
29121;BME280;16191;49.548;8.658;2023-12-28T13:09:13;100470.47;;;8.98;100.00